Aviation Digital Data Service (ADDS)

Output produced by METARs form (1259 UTC 24 July 2014)
found at http://www.aviationweather.gov/adds/metars/
 
KSBY 241139Z 2412/2512 36006KT 4SM -SHRA BKN040 BKN100 BKN200 
     FM241400 33006KT 5SM -SHRA BKN030 BKN070 OVC100 
     FM250300 36003KT P6SM BKN040 BKN100 
     FM250900 02005KT P6SM BKN035 AMD NOT SKED